createdAt,value
2019-06-08T00:00:55.991Z,100766.11
2019-06-08T00:06:19.308Z,100762.55
2019-06-08T00:11:42.627Z,100759.72
2019-06-08T00:17:05.942Z,100770.67
2019-06-08T00:22:29.221Z,100759.77
2019-06-08T00:27:52.491Z,100767.52
2019-06-08T00:33:18.493Z,100761.02
2019-06-08T00:38:41.913Z,100761.27
2019-06-08T00:44:05.182Z,100757.55
2019-06-08T00:49:29.109Z,100768.97
2019-06-08T00:54:52.787Z,100762.39
2019-06-08T01:00:20.439Z,100774.30
2019-06-08T01:05:44.119Z,100772.28
2019-06-08T01:11:07.391Z,100761.13
2019-06-08T01:16:30.806Z,100757.44
2019-06-08T01:21:54.161Z,100767.55
2019-06-08T01:27:17.458Z,100774.57
2019-06-08T01:32:40.779Z,100776.55
2019-06-08T01:38:04.392Z,100772.56
2019-06-08T01:43:27.809Z,100789.31
2019-06-08T01:48:51.046Z,100777.08
2019-06-08T01:54:13.970Z,100785.20
2019-06-08T01:59:37.250Z,100790.72
2019-06-08T02:05:00.532Z,100791.68
2019-06-08T02:10:26.665Z,100780.34
2019-06-08T02:15:50.092Z,100777.51
2019-06-08T02:21:13.490Z,100791.43
2019-06-08T02:26:36.779Z,100786.97
2019-06-08T02:32:00.026Z,100782.02
2019-06-08T02:37:23.026Z,100785.36
2019-06-08T02:42:46.497Z,100792.60
2019-06-08T02:48:10.362Z,100795.84
2019-06-08T02:53:36.774Z,100808.09
2019-06-08T02:59:02.566Z,100796.33
2019-06-08T03:04:27.921Z,100811.39
2019-06-08T03:09:52.059Z,100811.70
2019-06-08T03:15:19.398Z,100820.64
2019-06-08T03:20:42.658Z,100826.36
2019-06-08T03:26:05.953Z,100828.67
2019-06-08T03:31:29.453Z,100826.20
2019-06-08T03:36:56.704Z,100820.56
2019-06-08T03:42:17.926Z,100814.73
2019-06-08T03:47:41.901Z,100816.31
2019-06-08T03:53:06.295Z,100828.38
2019-06-08T03:58:33.642Z,100835.28
2019-06-08T04:03:59.788Z,100838.61
2019-06-08T04:09:20.436Z,100832.77
2019-06-08T04:14:44.459Z,100841.52
2019-06-08T04:20:11.493Z,100836.38
2019-06-08T04:25:33.998Z,100836.38
2019-06-08T04:30:57.434Z,100843.05
2019-06-08T04:36:20.685Z,100850.23
2019-06-08T04:41:45.078Z,100847.44
2019-06-08T04:47:08.883Z,100856.02
2019-06-08T04:52:32.154Z,100865.24
2019-06-08T04:57:55.427Z,100870.78
2019-06-08T05:03:18.713Z,100865.31
2019-06-08T05:08:43.100Z,100870.58
2019-06-08T05:14:06.548Z,100871.27
2019-06-08T05:19:29.871Z,100884.13
2019-06-08T05:24:53.171Z,100894.58
2019-06-08T05:30:20.117Z,100903.07
2019-06-08T05:35:43.498Z,100915.03
2019-06-08T05:41:06.983Z,100921.48
2019-06-08T05:46:30.194Z,100916.58
2019-06-08T05:51:53.590Z,100922.94
2019-06-08T05:57:16.895Z,100931.39
2019-06-08T06:02:40.182Z,100943.05
2019-06-08T06:08:16.192Z,100935.59
2019-06-08T06:13:28.902Z,100935.25
2019-06-08T06:18:52.334Z,100930.83
2019-06-08T06:24:15.827Z,100935.63
2019-06-08T06:29:38.830Z,100937.08
2019-06-08T06:35:02.041Z,100943.81
2019-06-08T06:40:25.928Z,100942.32
2019-06-08T06:45:49.982Z,100922.00
2019-06-08T06:51:25.698Z,100914.33
2019-06-08T06:56:38.537Z,100916.30
2019-06-08T07:02:01.805Z,100924.11
2019-06-08T07:07:25.091Z,100916.36
2019-06-08T07:12:48.682Z,100925.33
2019-06-08T07:18:11.846Z,100929.14
2019-06-08T07:23:35.129Z,100921.06
2019-06-08T07:28:58.930Z,100927.67
2019-06-08T07:34:21.946Z,100938.95
2019-06-08T07:39:45.432Z,100958.25
2019-06-08T07:45:08.995Z,100944.45
2019-06-08T07:50:32.361Z,100957.47
2019-06-08T07:55:56.336Z,100957.44
2019-06-08T08:01:35.339Z,100941.27
2019-06-08T08:06:45.405Z,100927.56
2019-06-08T08:12:12.052Z,100935.17
2019-06-08T08:17:34.471Z,100942.55
2019-06-08T08:23:04.148Z,100947.14
2019-06-08T08:28:23.040Z,100946.86
2019-06-08T08:33:45.986Z,100942.86
2019-06-08T08:39:10.270Z,100946.94
2019-06-08T08:44:33.589Z,100937.52
2019-06-08T08:49:59.152Z,100939.26
2019-06-08T08:55:22.898Z,100936.16
2019-06-08T09:00:48.715Z,100934.88
2019-06-08T09:06:11.452Z,100943.48
2019-06-08T09:11:34.701Z,100932.61
2019-06-08T09:17:00.514Z,100940.12
2019-06-08T09:22:22.997Z,100937.00
2019-06-08T09:27:48.252Z,100955.80
2019-06-08T09:33:11.733Z,100957.09
2019-06-08T09:38:34.986Z,100956.41
2019-06-08T09:44:00.513Z,100952.84
2019-06-08T09:49:22.977Z,100957.42
2019-06-08T09:54:48.140Z,100946.41
2019-06-08T10:00:18.241Z,100957.27
2019-06-08T10:05:39.396Z,100948.52
2019-06-08T10:11:05.647Z,100954.50
2019-06-08T10:16:30.574Z,100945.59
2019-06-08T10:21:52.641Z,100952.32
2019-06-08T10:27:18.493Z,100922.99
2019-06-08T10:32:41.082Z,100920.98
2019-06-08T10:38:07.957Z,100934.34
2019-06-08T10:43:29.534Z,100931.28
2019-06-08T10:48:52.951Z,100926.45
2019-06-08T10:54:17.438Z,100928.05
2019-06-08T10:59:40.999Z,100936.77
2019-06-08T11:05:09.167Z,100943.61
2019-06-08T11:10:29.334Z,100966.41
2019-06-08T11:15:52.783Z,100967.99
2019-06-08T11:21:18.468Z,100949.83
2019-06-08T11:26:40.871Z,100987.14
2019-06-08T11:32:04.244Z,100990.97
2019-06-08T11:37:29.304Z,101022.25
2019-06-08T11:42:52.686Z,101007.24
2019-06-08T11:48:18.179Z,101003.45
2019-06-08T11:53:40.734Z,100994.80
2019-06-08T11:59:05.241Z,101015.50
2019-06-08T12:04:28.856Z,101009.66
2019-06-08T12:09:52.164Z,101056.88
2019-06-08T12:15:18.140Z,101079.08
2019-06-08T12:20:41.573Z,101052.44
2019-06-08T12:26:06.005Z,101065.39
2019-06-08T12:31:29.578Z,101117.88
2019-06-08T12:37:15.632Z,101073.94
2019-06-08T12:42:49.724Z,101103.82
2019-06-08T12:48:29.069Z,101086.28
2019-06-08T12:54:03.507Z,101088.94
2019-06-08T12:59:28.256Z,101075.18
2019-06-08T13:04:51.681Z,101111.72
2019-06-08T13:10:20.073Z,101104.77
2019-06-08T13:15:41.573Z,101138.63
2019-06-08T13:21:20.343Z,101142.69
2019-06-08T13:26:31.105Z,101158.03
2019-06-08T13:31:54.704Z,101120.60
2019-06-08T13:37:19.320Z,101147.53
2019-06-08T13:42:43.014Z,101160.81
2019-06-08T13:48:05.951Z,101186.66
2019-06-08T13:53:31.881Z,101173.66
2019-06-08T13:58:55.468Z,101184.02
2019-06-08T14:04:20.626Z,101194.10
2019-06-08T14:09:44.499Z,101227.94
2019-06-08T14:15:08.712Z,101212.05
2019-06-08T14:20:38.230Z,101209.44
2019-06-08T14:26:00.933Z,101218.02
2019-06-08T14:31:25.653Z,101242.25
2019-06-08T14:36:49.680Z,101231.89
2019-06-08T14:42:12.986Z,101233.91
2019-06-08T14:47:37.632Z,101246.91
2019-06-08T14:53:01.213Z,101247.59
2019-06-08T14:58:29.127Z,101252.18
2019-06-08T15:03:49.957Z,101255.08
2019-06-08T15:09:13.212Z,101265.37
2019-06-08T15:14:38.454Z,101272.16
2019-06-08T15:20:02.001Z,101277.84
2019-06-08T15:25:27.346Z,101289.16
2019-06-08T15:30:51.203Z,101287.51
2019-06-08T15:36:14.480Z,101295.36
2019-06-08T15:41:38.198Z,101291.88
2019-06-08T15:47:01.816Z,101293.20
2019-06-08T15:52:24.944Z,101297.58
2019-06-08T15:57:48.203Z,101295.52
2019-06-08T16:03:11.627Z,101299.64
2019-06-08T16:08:37.878Z,101304.85
2019-06-08T16:14:00.055Z,101302.89
2019-06-08T16:19:22.941Z,101306.45
2019-06-08T16:24:46.230Z,101305.64
2019-06-08T16:30:11.180Z,101303.95
2019-06-08T16:35:35.768Z,101298.88
2019-06-08T16:40:59.488Z,101302.09
2019-06-08T16:46:22.764Z,101308.76
2019-06-08T16:51:46.376Z,101302.09
2019-06-08T16:57:11.038Z,101314.05
2019-06-08T17:02:35.204Z,101315.94
2019-06-08T17:07:58.686Z,101299.55
2019-06-08T17:13:21.933Z,101324.41
2019-06-08T17:18:45.211Z,101322.05
2019-06-08T17:24:08.504Z,101332.75
2019-06-08T17:29:32.818Z,101340.73
2019-06-08T17:34:56.765Z,101342.09
2019-06-08T17:40:20.302Z,101350.41
2019-06-08T17:45:43.874Z,101352.30
2019-06-08T17:51:07.169Z,101361.26
2019-06-08T17:56:30.423Z,101371.16
2019-06-08T18:01:53.726Z,101374.61
2019-06-08T18:07:17.226Z,101388.86
2019-06-08T18:12:43.502Z,101391.38
2019-06-08T18:18:08.416Z,101406.30
2019-06-08T18:23:32.077Z,101417.09
2019-06-08T18:28:58.003Z,101415.30
2019-06-08T18:34:20.699Z,101420.22
2019-06-08T18:39:49.043Z,101427.98
2019-06-08T18:45:13.895Z,101442.63
2019-06-08T18:50:39.311Z,101450.91
2019-06-08T18:56:02.147Z,101453.53
2019-06-08T19:01:27.362Z,101477.44
2019-06-08T19:06:50.402Z,101488.96
2019-06-08T19:12:13.771Z,101501.28
2019-06-08T19:17:43.927Z,101509.92
2019-06-08T19:23:02.001Z,101519.78
2019-06-08T19:28:35.790Z,101536.88
2019-06-08T19:33:53.442Z,101544.20
2019-06-08T19:39:17.650Z,101559.70
2019-06-08T19:44:48.554Z,101580.89
2019-06-08T19:50:07.631Z,101584.89
2019-06-08T19:55:30.589Z,101599.61
2019-06-08T20:00:54.910Z,101595.39
2019-06-08T20:06:20.219Z,101616.02
2019-06-08T20:11:48.500Z,101616.95
2019-06-08T20:17:08.795Z,101627.39
2019-06-08T20:22:32.077Z,101634.97
2019-06-08T20:27:55.344Z,101636.92
2019-06-08T20:33:18.616Z,101647.02
2019-06-08T20:38:44.048Z,101655.70
2019-06-08T20:44:08.475Z,101668.09
2019-06-08T20:49:31.794Z,101681.33
2019-06-08T20:54:55.092Z,101673.56
2019-06-08T21:00:20.112Z,101683.06
2019-06-08T21:05:43.631Z,101679.66
2019-06-08T21:11:08.470Z,101684.32
2019-06-08T21:16:32.271Z,101681.98
2019-06-08T21:21:56.806Z,101687.23
2019-06-08T21:27:20.502Z,101688.42
2019-06-08T21:32:43.830Z,101690.02
2019-06-08T21:38:20.353Z,101688.81
2019-06-08T21:43:32.009Z,101688.92
2019-06-08T21:48:56.877Z,101696.02
2019-06-08T21:54:19.869Z,101701.28
2019-06-08T21:59:43.049Z,101704.63
2019-06-08T22:05:08.055Z,101708.09
2019-06-08T22:10:31.076Z,101705.36
2019-06-08T22:15:54.857Z,101712.52
2019-06-08T22:21:18.448Z,101709.84
2019-06-08T22:26:42.039Z,101726.72
2019-06-08T22:32:07.425Z,101717.11
2019-06-08T22:37:30.587Z,101722.88
2019-06-08T22:42:54.585Z,101736.77
2019-06-08T22:48:18.782Z,101737.37
2019-06-08T22:53:41.757Z,101743.62
2019-06-08T22:59:06.743Z,101753.53
2019-06-08T23:04:30.042Z,101753.70
2019-06-08T23:09:54.963Z,101761.63
2019-06-08T23:15:18.774Z,101763.55
2019-06-08T23:20:42.064Z,101772.15
2019-06-08T23:26:10.008Z,101767.34
2019-06-08T23:31:30.323Z,101769.44
2019-06-08T23:36:59.141Z,101772.16
2019-06-08T23:42:18.925Z,101765.34
2019-06-08T23:47:42.227Z,101773.25
2019-06-08T23:53:07.783Z,101778.65
2019-06-08T23:58:30.461Z,101782.05
